Time;durP1;ratioP1;P1;durP2;ratioP2;P2;SDS_P1;SDS_P2;PMS_P1;PMS_P2;Temp;Humidity;BMP_temperature;BMP_pressure;BME280_temperature;BME280_humidity;BME280_pressure;Samples;Min_cycle;Max_cycle;Signal;HPM_P1;HPM_P2
2021/09/27 00:02:05;;;;;;;19.30;14.20;;;;;;;;;;5024846;28;20226;-65
2021/09/27 00:04:31;;;;;;;24.90;14.07;;;;;;;;;;5022045;28;20028;-65
2021/09/27 00:06:58;;;;;;;21.85;14.10;;;;;;;;;;5019358;28;20026;-65
2021/09/27 00:09:32;;;;;;;20.75;13.27;;;;;;;;;;5043061;23;20037;-71
2021/09/27 00:11:58;;;;;;;21.35;13.43;;;;;;;;;;5015546;28;20529;-71
2021/09/27 00:14:24;;;;;;;23.65;15.32;;;;;;;;;;5017436;28;20033;-71
2021/09/27 00:16:50;;;;;;;26.13;14.90;;;;;;;;;;5017628;28;20053;-71
2021/09/27 00:19:16;;;;;;;24.30;14.75;;;;;;;;;;5007356;28;20045;-71
2021/09/27 00:21:42;;;;;;;23.73;15.35;;;;;;;;;;4990350;28;20120;-71
2021/09/27 00:24:08;;;;;;;25.00;15.80;;;;;;;;;;4978887;28;20109;-71
2021/09/27 00:26:34;;;;;;;21.92;15.65;;;;;;;;;;4993304;28;20022;-71
2021/09/27 00:29:00;;;;;;;24.77;14.70;;;;;;;;;;5002081;28;20105;-71
2021/09/27 00:31:26;;;;;;;22.27;14.77;;;;;;;;;;4990930;28;20105;-71
2021/09/27 00:33:52;;;;;;;27.10;16.35;;;;;;;;;;4977415;28;20703;-71
2021/09/27 00:36:18;;;;;;;27.23;15.05;;;;;;;;;;4991062;28;20022;-71
2021/09/27 00:38:44;;;;;;;23.75;14.82;;;;;;;;;;4992055;28;20018;-71
2021/09/27 00:41:12;;;;;;;24.00;15.27;;;;;;;;;;5010308;28;20045;-71
2021/09/27 00:43:39;;;;;;;25.27;15.00;;;;;;;;;;4994372;28;20022;-71
2021/09/27 00:46:10;;;;;;;26.73;15.93;;;;;;;;;;5000052;28;20018;-71
2021/09/27 00:48:36;;;;;;;29.92;17.17;;;;;;;;;;4997647;28;20026;-71
2021/09/27 00:51:11;;;;;;;26.83;15.63;;;;;;;;;;4997563;28;20030;-71
2021/09/27 00:53:43;;;;;;;27.77;16.08;;;;;;;;;;4991258;28;20084;-71
2021/09/27 00:56:09;;;;;;;22.27;14.48;;;;;;;;;;5000628;28;20034;-71
2021/09/27 00:58:35;;;;;;;22.20;15.45;;;;;;;;;;4998205;28;20032;-71
2021/09/27 01:01:02;;;;;;;28.02;15.20;;;;;;;;;;4994397;28;20046;-71
2021/09/27 01:03:29;;;;;;;24.25;15.38;;;;;;;;;;5002016;28;20486;-71
2021/09/27 01:05:58;;;;;;;29.02;15.80;;;;;;;;;;4994285;28;20029;-71
2021/09/27 01:08:32;;;;;;;23.35;14.20;;;;;;;;;;4999285;28;20081;-71
2021/09/27 01:11:07;;;;;;;21.88;13.88;;;;;;;;;;4995815;28;20045;-71
2021/09/27 01:13:51;;;;;;;30.30;15.23;;;;;;;;;;4990849;28;20388;-71
2021/09/27 01:16:23;;;;;;;24.67;15.85;;;;;;;;;;4990310;28;20037;-72
2021/09/27 01:18:56;;;;;;;27.77;15.50;;;;;;;;;;4994077;28;20031;-73
2021/09/27 01:21:45;;;;;;;24.45;15.32;;;;;;;;;;4998585;28;20049;-71
2021/09/27 01:24:17;;;;;;;26.13;15.15;;;;;;;;;;4990299;28;20026;-71
2021/09/27 01:27:01;;;;;;;25.50;15.68;;;;;;;;;;4969098;28;20026;-71
2021/09/27 01:29:45;;;;;;;28.77;16.40;;;;;;;;;;5002794;28;20100;-71
2021/09/27 01:32:17;;;;;;;23.10;14.50;;;;;;;;;;4982782;28;20019;-73
2021/09/27 01:34:53;;;;;;;22.45;15.55;;;;;;;;;;4996536;28;20110;-71
2021/09/27 01:37:25;;;;;;;25.48;15.80;;;;;;;;;;4983735;28;20110;-71
2021/09/27 01:39:51;;;;;;;25.42;15.45;;;;;;;;;;5008278;28;20501;-71
2021/09/27 01:42:25;;;;;;;25.90;15.52;;;;;;;;;;5005862;28;20034;-71
2021/09/27 01:44:57;;;;;;;28.83;16.90;;;;;;;;;;5006129;28;20040;-70
2021/09/27 01:47:27;;;;;;;23.60;15.38;;;;;;;;;;5004582;28;20022;-71
2021/09/27 01:50:11;;;;;;;29.33;16.63;;;;;;;;;;5004487;28;20030;-71
2021/09/27 01:52:44;;;;;;;26.98;15.75;;;;;;;;;;4995490;28;20026;-71
2021/09/27 01:55:21;;;;;;;28.23;16.70;;;;;;;;;;5002941;28;20030;-71
2021/09/27 01:57:55;;;;;;;22.75;16.10;;;;;;;;;;4998202;28;20030;-70
2021/09/27 02:00:29;;;;;;;29.77;16.48;;;;;;;;;;5001326;28;20018;-70
2021/09/27 02:03:13;;;;;;;39.55;17.60;;;;;;;;;;5002404;28;20134;-71
2021/09/27 02:05:53;;;;;;;28.25;16.55;;;;;;;;;;5003134;28;20027;-71
2021/09/27 02:08:25;;;;;;;29.77;18.77;;;;;;;;;;5005911;28;20076;-71
2021/09/27 02:10:56;;;;;;;29.88;16.38;;;;;;;;;;5002033;28;20037;-71
2021/09/27 02:13:22;;;;;;;31.20;16.70;;;;;;;;;;5004135;28;20050;-71
2021/09/27 02:15:57;;;;;;;31.55;16.73;;;;;;;;;;5009914;28;20072;-72
2021/09/27 02:18:36;;;;;;;33.25;18.90;;;;;;;;;;5000348;28;20077;-73
2021/09/27 02:21:04;;;;;;;31.67;18.33;;;;;;;;;;5006404;28;20026;-71
2021/09/27 02:23:46;;;;;;;30.77;16.70;;;;;;;;;;5002116;28;20025;-70
2021/09/27 02:26:12;;;;;;;26.15;16.25;;;;;;;;;;5006712;28;20064;-71
2021/09/27 02:28:38;;;;;;;30.52;18.10;;;;;;;;;;4992528;28;20022;-72
2021/09/27 02:31:14;;;;;;;35.83;19.85;;;;;;;;;;5005172;28;20030;-73
2021/09/27 02:33:57;;;;;;;31.35;18.50;;;;;;;;;;4999243;28;20050;-71
2021/09/27 02:36:26;;;;;;;31.48;17.65;;;;;;;;;;5002304;28;20116;-73
2021/09/27 02:39:04;;;;;;;27.50;18.57;;;;;;;;;;5006036;28;20585;-73
2021/09/27 02:41:30;;;;;;;33.50;17.45;;;;;;;;;;5004868;28;20034;-73
2021/09/27 02:43:56;;;;;;;36.30;20.02;;;;;;;;;;5006372;28;20033;-73
2021/09/27 02:46:23;;;;;;;28.20;16.60;;;;;;;;;;5005771;28;20029;-73
2021/09/27 02:49:08;;;;;;;29.30;18.05;;;;;;;;;;5006218;28;20046;-73
2021/09/27 02:51:35;;;;;;;29.70;18.15;;;;;;;;;;5002945;28;20029;-73
2021/09/27 02:54:01;;;;;;;30.70;18.02;;;;;;;;;;5001837;28;20024;-71
2021/09/27 02:56:53;;;;;;;34.00;18.48;;;;;;;;;;5002815;28;20084;-70
2021/09/27 02:59:25;;;;;;;29.17;18.27;;;;;;;;;;4970344;28;20038;-70
2021/09/27 03:01:54;;;;;;;37.20;18.65;;;;;;;;;;5003190;28;20065;-70
2021/09/27 03:04:26;;;;;;;29.58;17.73;;;;;;;;;;5005124;28;20037;-71
2021/09/27 03:06:58;;;;;;;30.63;18.98;;;;;;;;;;5006609;28;20053;-71
2021/09/27 03:09:30;;;;;;;32.00;19.48;;;;;;;;;;5003248;28;20080;-71
2021/09/27 03:12:15;;;;;;;31.90;19.45;;;;;;;;;;5005320;28;20048;-71
2021/09/27 03:14:47;;;;;;;35.22;20.15;;;;;;;;;;5002592;28;20069;-71
2021/09/27 03:17:25;;;;;;;33.88;18.70;;;;;;;;;;5002052;28;20163;-71
2021/09/27 03:20:10;;;;;;;35.55;19.33;;;;;;;;;;5007250;28;20394;-70
2021/09/27 03:22:51;;;;;;;35.00;19.83;;;;;;;;;;5001223;28;20210;-72
2021/09/27 03:25:36;;;;;;;41.20;21.00;;;;;;;;;;5001644;28;20450;-72
2021/09/27 03:28:11;;;;;;;35.50;20.77;;;;;;;;;;4991634;28;20019;-73
2021/09/27 03:30:52;;;;;;;36.92;20.70;;;;;;;;;;4989716;28;20484;-73
2021/09/27 03:33:17;;;;;;;40.60;21.02;;;;;;;;;;4991704;28;20029;-73
2021/09/27 03:35:47;;;;;;;39.20;20.83;;;;;;;;;;5015734;28;20030;-73
2021/09/27 03:38:13;;;;;;;40.47;21.63;;;;;;;;;;4995787;28;20025;-73
2021/09/27 03:40:39;;;;;;;43.05;22.13;;;;;;;;;;5004738;28;20076;-72
2021/09/27 03:43:20;;;;;;;38.60;21.30;;;;;;;;;;4996766;28;20044;-72
2021/09/27 03:46:00;;;;;;;43.70;20.70;;;;;;;;;;4975089;28;20053;-73
2021/09/27 03:48:40;;;;;;;36.80;19.60;;;;;;;;;;4982026;28;20485;-73
2021/09/27 03:51:11;;;;;;;41.80;21.15;;;;;;;;;;4999873;28;20061;-73
2021/09/27 03:53:40;;;;;;;36.00;20.58;;;;;;;;;;4977131;28;20030;-73
2021/09/27 03:56:11;;;;;;;47.17;23.88;;;;;;;;;;4986746;28;20023;-71
2021/09/27 03:58:40;;;;;;;40.50;20.55;;;;;;;;;;4981401;28;20061;-71
2021/09/27 04:01:26;;;;;;;44.72;22.83;;;;;;;;;;5005773;28;20391;-71
2021/09/27 04:04:04;;;;;;;42.67;22.67;;;;;;;;;;5012484;28;20075;-71
2021/09/27 04:06:51;;;;;;;40.80;22.60;;;;;;;;;;4995134;28;20022;-73
2021/09/27 04:09:17;;;;;;;41.35;22.38;;;;;;;;;;4998513;28;20038;-73
2021/09/27 04:11:46;;;;;;;47.13;24.63;;;;;;;;;;4997564;28;20617;-71
2021/09/27 04:14:31;;;;;;;39.22;22.75;;;;;;;;;;4997515;28;20022;-73
2021/09/27 04:17:08;;;;;;;44.60;23.10;;;;;;;;;;4976543;28;20373;-73
2021/09/27 04:19:34;;;;;;;43.10;23.20;;;;;;;;;;4999519;28;20057;-72
2021/09/27 04:22:09;;;;;;;49.50;24.73;;;;;;;;;;4994945;28;20058;-73
2021/09/27 04:24:44;;;;;;;39.63;22.60;;;;;;;;;;4999679;28;20018;-73
2021/09/27 04:27:16;;;;;;;45.75;23.27;;;;;;;;;;4990695;28;20154;-73
2021/09/27 04:30:06;;;;;;;46.70;23.55;;;;;;;;;;4994520;28;20690;-73
2021/09/27 04:32:32;;;;;;;;;;;;;;;;;;4991824;28;20014;-72
2021/09/27 04:35:17;;;;;;;53.03;25.25;;;;;;;;;;5003467;28;19909;-72
2021/09/27 04:37:44;;;;;;;46.22;23.90;;;;;;;;;;4993403;28;20061;-72
2021/09/27 04:40:11;;;;;;;53.25;25.08;;;;;;;;;;4997656;28;20038;-73
2021/09/27 04:42:39;;;;;;;53.70;25.45;;;;;;;;;;4990981;28;20026;-73
2021/09/27 04:45:09;;;;;;;52.95;25.63;;;;;;;;;;4990234;28;20034;-73
2021/09/27 04:47:40;;;;;;;47.50;26.20;;;;;;;;;;4991050;28;20022;-73
2021/09/27 04:50:19;;;;;;;48.72;25.15;;;;;;;;;;4971931;28;20264;-73
2021/09/27 04:52:50;;;;;;;54.05;27.20;;;;;;;;;;4991732;28;20479;-73
2021/09/27 04:55:19;;;;;;;57.15;26.67;;;;;;;;;;4992897;28;20026;-73
2021/09/27 04:58:04;;;;;;;53.25;26.42;;;;;;;;;;4991023;28;20472;-73
2021/09/27 05:00:42;;;;;;;54.45;26.30;;;;;;;;;;4995603;28;20514;-72
2021/09/27 05:03:14;;;;;;;54.13;27.40;;;;;;;;;;4997738;28;20037;-72
2021/09/27 05:05:48;;;;;;;64.40;29.75;;;;;;;;;;4997769;28;20029;-73
2021/09/27 05:08:33;;;;;;;56.55;26.70;;;;;;;;;;4990108;28;20054;-73
2021/09/27 05:11:10;;;;;;;59.05;27.45;;;;;;;;;;5004814;28;20471;-73
2021/09/27 05:13:53;;;;;;;58.22;27.27;;;;;;;;;;4977644;28;20041;-73
2021/09/27 05:16:40;;;;;;;61.70;29.50;;;;;;;;;;4995959;28;20034;-73
2021/09/27 05:19:18;;;;;;;58.08;28.63;;;;;;;;;;4991054;28;20034;-72
2021/09/27 05:21:50;;;;;;;55.65;27.23;;;;;;;;;;4990254;28;20022;-72
2021/09/27 05:24:35;;;;;;;60.97;28.50;;;;;;;;;;4995364;28;20021;-73
2021/09/27 05:27:13;;;;;;;62.58;30.42;;;;;;;;;;4984303;28;20388;-73
2021/09/27 05:29:55;;;;;;;59.47;29.75;;;;;;;;;;4999271;28;20030;-72
2021/09/27 05:32:33;;;;;;;62.03;27.48;;;;;;;;;;4996888;28;20034;-72
2021/09/27 05:35:09;;;;;;;58.47;27.65;;;;;;;;;;4996955;28;20361;-73
2021/09/27 05:37:41;;;;;;;62.22;27.77;;;;;;;;;;4990928;28;20022;-73
2021/09/27 05:40:26;;;;;;;64.80;29.20;;;;;;;;;;4984716;28;20033;-73
2021/09/27 05:43:17;;;;;;;69.97;30.27;;;;;;;;;;4998268;28;20575;-73
2021/09/27 05:45:58;;;;;;;61.65;26.88;;;;;;;;;;5000446;28;20037;-72
2021/09/27 05:48:29;;;;;;;65.55;28.40;;;;;;;;;;4991525;28;20030;-73
2021/09/27 05:50:55;;;;;;;74.88;29.88;;;;;;;;;;4996867;28;20038;-72
2021/09/27 05:53:25;;;;;;;66.45;29.60;;;;;;;;;;4995970;28;20062;-73
2021/09/27 05:55:55;;;;;;;58.25;27.73;;;;;;;;;;4996930;28;20030;-73
2021/09/27 05:58:44;;;;;;;59.75;28.15;;;;;;;;;;5002594;28;20034;-73
2021/09/27 06:01:29;;;;;;;53.75;26.27;;;;;;;;;;4985349;28;20034;-72
2021/09/27 06:04:13;;;;;;;51.92;26.60;;;;;;;;;;4995774;28;20133;-73
2021/09/27 06:06:42;;;;;;;51.28;25.25;;;;;;;;;;4992561;28;20034;-73
2021/09/27 06:09:08;;;;;;;49.90;23.92;;;;;;;;;;4992956;28;20479;-73
2021/09/27 06:11:58;;;;;;;43.42;22.60;;;;;;;;;;4989988;28;20030;-73
2021/09/27 06:14:25;;;;;;;46.40;24.23;;;;;;;;;;4986958;28;20108;-73
2021/09/27 06:17:11;;;;;;;40.40;21.08;;;;;;;;;;4994950;28;20427;-72
2021/09/27 06:19:57;;;;;;;33.05;19.42;;;;;;;;;;4990014;28;20542;-72
2021/09/27 06:22:32;;;;;;;31.70;18.73;;;;;;;;;;4996097;28;20041;-70
2021/09/27 06:24:58;;;;;;;29.75;17.85;;;;;;;;;;4999892;28;20110;-72
2021/09/27 06:27:33;;;;;;;33.55;17.63;;;;;;;;;;5010352;28;20022;-72
2021/09/27 06:30:04;;;;;;;28.00;17.05;;;;;;;;;;5011089;28;20045;-72
2021/09/27 06:32:30;;;;;;;24.13;15.65;;;;;;;;;;4992748;28;20014;-69
2021/09/27 06:35:02;;;;;;;26.95;16.38;;;;;;;;;;4965983;28;20125;-69
2021/09/27 06:37:28;;;;;;;25.38;14.32;;;;;;;;;;4989448;28;20038;-71
2021/09/27 06:39:55;;;;;;;30.33;15.13;;;;;;;;;;4998841;28;20379;-71
2021/09/27 06:42:21;;;;;;;26.80;15.70;;;;;;;;;;4972032;28;20029;-71
2021/09/27 06:44:47;;;;;;;27.10;15.05;;;;;;;;;;4992098;28;20026;-71
2021/09/27 06:47:14;;;;;;;25.55;14.98;;;;;;;;;;4996106;28;20032;-71
2021/09/27 06:49:40;;;;;;;27.65;16.23;;;;;;;;;;4992719;28;20022;-71
2021/09/27 06:52:06;;;;;;;24.52;14.27;;;;;;;;;;4992867;28;20036;-71
2021/09/27 06:54:32;;;;;;;25.77;15.68;;;;;;;;;;4993180;28;20435;-69
2021/09/27 06:56:59;;;;;;;29.25;15.55;;;;;;;;;;4992632;28;20031;-69
2021/09/27 06:59:25;;;;;;;23.67;14.13;;;;;;;;;;4993225;28;20088;-69
2021/09/27 07:01:51;;;;;;;23.27;14.48;;;;;;;;;;4991914;28;20663;-69
2021/09/27 07:04:17;;;;;;;24.05;14.18;;;;;;;;;;4996180;28;20585;-69
2021/09/27 07:06:43;;;;;;;25.70;13.98;;;;;;;;;;4997533;28;20038;-69
2021/09/27 07:09:10;;;;;;;26.08;14.75;;;;;;;;;;4993037;28;20038;-71
2021/09/27 07:11:37;;;;;;;23.02;14.48;;;;;;;;;;4977013;28;20026;-69
2021/09/27 07:14:03;;;;;;;25.27;15.00;;;;;;;;;;4992460;28;20080;-71
2021/09/27 07:16:29;;;;;;;21.92;13.00;;;;;;;;;;4992123;28;20459;-71
2021/09/27 07:18:55;;;;;;;26.23;14.15;;;;;;;;;;4992457;28;20545;-71
2021/09/27 07:21:21;;;;;;;23.30;13.32;;;;;;;;;;4993248;28;20165;-69
2021/09/27 07:23:47;;;;;;;19.45;12.93;;;;;;;;;;4994090;28;20109;-69
2021/09/27 07:26:14;;;;;;;24.48;13.60;;;;;;;;;;4998088;28;20400;-71
2021/09/27 07:28:41;;;;;;;20.40;12.55;;;;;;;;;;4994253;28;20357;-69
2021/09/27 07:31:07;;;;;;;24.52;11.77;;;;;;;;;;4991953;28;20034;-69
2021/09/27 07:33:34;;;;;;;22.38;12.85;;;;;;;;;;4991701;28;20522;-71
2021/09/27 07:36:00;;;;;;;25.38;13.45;;;;;;;;;;4992429;28;20046;-71
2021/09/27 07:38:26;;;;;;;21.60;13.57;;;;;;;;;;4998036;28;20024;-71
2021/09/27 07:40:54;;;;;;;21.30;11.60;;;;;;;;;;5006073;28;20027;-71
2021/09/27 07:43:20;;;;;;;26.33;13.57;;;;;;;;;;4988664;28;20030;-70
2021/09/27 07:45:46;;;;;;;22.50;13.65;;;;;;;;;;4991602;28;20035;-70
2021/09/27 07:48:13;;;;;;;23.10;12.38;;;;;;;;;;4994860;28;20502;-70
2021/09/27 07:50:40;;;;;;;20.83;14.05;;;;;;;;;;4991855;28;20096;-70
2021/09/27 07:53:06;;;;;;;21.60;13.48;;;;;;;;;;4993676;28;20019;-70
2021/09/27 07:55:32;;;;;;;23.15;14.52;;;;;;;;;;5003065;28;20489;-70
2021/09/27 07:57:58;;;;;;;26.00;15.63;;;;;;;;;;5000729;28;20061;-70
2021/09/27 08:00:24;;;;;;;24.23;15.98;;;;;;;;;;5003058;28;20034;-71
2021/09/27 08:02:50;;;;;;;25.10;15.10;;;;;;;;;;4996378;28;20034;-70
2021/09/27 08:05:18;;;;;;;25.98;15.48;;;;;;;;;;4983584;28;20034;-71
2021/09/27 08:07:44;;;;;;;26.00;16.15;;;;;;;;;;5001518;28;20530;-70
2021/09/27 08:10:11;;;;;;;27.20;16.92;;;;;;;;;;4998042;28;20027;-70
2021/09/27 08:12:38;;;;;;;27.95;16.50;;;;;;;;;;5004170;28;20545;-70
2021/09/27 08:15:08;;;;;;;25.83;17.55;;;;;;;;;;5000296;28;20085;-71
2021/09/27 08:17:34;;;;;;;27.85;16.67;;;;;;;;;;4998448;28;20018;-70
2021/09/27 08:20:02;;;;;;;25.75;16.25;;;;;;;;;;5002026;28;20084;-71
2021/09/27 08:22:28;;;;;;;26.90;17.08;;;;;;;;;;4998735;28;20065;-71
2021/09/27 08:24:54;;;;;;;29.50;16.40;;;;;;;;;;4995678;28;20034;-71
2021/09/27 08:27:20;;;;;;;26.45;17.23;;;;;;;;;;4996361;28;20033;-71
2021/09/27 08:29:46;;;;;;;29.85;17.80;;;;;;;;;;4999025;28;20038;-70
2021/09/27 08:32:12;;;;;;;25.05;16.08;;;;;;;;;;4994782;28;20023;-71
2021/09/27 08:34:38;;;;;;;30.35;16.45;;;;;;;;;;4993997;28;20084;-70
2021/09/27 08:37:05;;;;;;;26.83;17.73;;;;;;;;;;4996456;28;20124;-70
2021/09/27 08:39:31;;;;;;;25.30;16.45;;;;;;;;;;5004386;28;20029;-71
2021/09/27 08:42:20;;;;;;;26.08;14.85;;;;;;;;;;5000110;28;20038;-71
2021/09/27 08:44:52;;;;;;;26.88;15.35;;;;;;;;;;4989511;28;20026;-70
2021/09/27 08:47:26;;;;;;;23.67;14.70;;;;;;;;;;4998827;28;20025;-71
2021/09/27 08:50:01;;;;;;;25.15;14.88;;;;;;;;;;5004799;28;20030;-68
2021/09/27 08:52:31;;;;;;;24.23;14.65;;;;;;;;;;4998735;28;20033;-71
2021/09/27 08:54:56;;;;;;;23.80;14.20;;;;;;;;;;4995789;28;20046;-70
2021/09/27 08:57:22;;;;;;;19.88;13.85;;;;;;;;;;4990338;28;20026;-70
2021/09/27 09:00:08;;;;;;;18.42;12.40;;;;;;;;;;4989428;28;21531;-70
2021/09/27 09:02:37;;;;;;;20.67;13.23;;;;;;;;;;5004211;28;20025;-70
2021/09/27 09:05:23;;;;;;;19.13;12.13;;;;;;;;;;5002411;28;20054;-70
2021/09/27 09:08:07;;;;;;;20.05;12.10;;;;;;;;;;5003913;28;20041;-70
2021/09/27 09:10:46;;;;;;;18.00;11.73;;;;;;;;;;5002996;28;20096;-70
2021/09/27 09:13:18;;;;;;;18.10;11.32;;;;;;;;;;5006616;28;20481;-70
2021/09/27 09:15:57;;;;;;;17.45;12.13;;;;;;;;;;5003857;28;20041;-72
2021/09/27 09:18:26;;;;;;;17.15;10.90;;;;;;;;;;4991649;28;20824;-71
2021/09/27 09:20:58;;;;;;;16.00;10.33;;;;;;;;;;4990309;28;20072;-71
2021/09/27 09:23:30;;;;;;;16.95;10.00;;;;;;;;;;4998056;28;20315;-71
2021/09/27 09:25:56;;;;;;;15.18;9.65;;;;;;;;;;5004927;28;20032;-71
2021/09/27 09:28:22;;;;;;;15.70;10.32;;;;;;;;;;5002816;28;20022;-71
2021/09/27 09:30:54;;;;;;;15.52;9.88;;;;;;;;;;4998903;28;20054;-71
2021/09/27 09:33:38;;;;;;;19.25;9.20;;;;;;;;;;4996582;28;20057;-69
2021/09/27 09:36:05;;;;;;;13.10;8.07;;;;;;;;;;4990648;28;20419;-68
2021/09/27 09:38:34;;;;;;;15.55;9.23;;;;;;;;;;4996692;28;20112;-68
2021/09/27 09:41:00;;;;;;;14.07;9.20;;;;;;;;;;4989493;28;20030;-68
2021/09/27 09:43:34;;;;;;;15.20;9.32;;;;;;;;;;4993594;28;20033;-70
2021/09/27 09:46:02;;;;;;;12.27;8.30;;;;;;;;;;4989691;28;20546;-69
2021/09/27 09:48:28;;;;;;;14.30;9.02;;;;;;;;;;4988968;28;20042;-69
2021/09/27 09:50:56;;;;;;;13.98;7.63;;;;;;;;;;4990021;28;20027;-69
2021/09/27 09:53:24;;;;;;;14.63;8.05;;;;;;;;;;4988639;28;20036;-69
2021/09/27 09:56:04;;;;;;;14.63;7.82;;;;;;;;;;4992904;28;20034;-69
2021/09/27 09:58:41;;;;;;;14.20;8.27;;;;;;;;;;4994508;28;20537;-69
2021/09/27 10:01:07;;;;;;;12.30;7.40;;;;;;;;;;4994036;28;20472;-70
2021/09/27 10:03:38;;;;;;;9.45;6.43;;;;;;;;;;4990439;28;20041;-70
2021/09/27 10:06:09;;;;;;;15.77;7.72;;;;;;;;;;4992502;28;20089;-69
2021/09/27 10:08:36;;;;;;;10.55;7.65;;;;;;;;;;4993884;28;20472;-69
2021/09/27 10:11:02;;;;;;;10.75;6.65;;;;;;;;;;4995626;28;20030;-69
2021/09/27 10:13:30;;;;;;;10.10;6.45;;;;;;;;;;4996458;28;20023;-69
2021/09/27 10:15:56;;;;;;;11.43;6.97;;;;;;;;;;4993145;28;20085;-69
2021/09/27 10:18:26;;;;;;;14.90;6.38;;;;;;;;;;5003780;28;20041;-69
2021/09/27 10:20:58;;;;;;;9.93;6.35;;;;;;;;;;4994119;28;20026;-69
2021/09/27 10:23:35;;;;;;;12.38;6.32;;;;;;;;;;4997743;28;20022;-70
2021/09/27 10:26:13;;;;;;;11.10;6.25;;;;;;;;;;4995374;28;20057;-69
2021/09/27 10:28:40;;;;;;;10.00;5.55;;;;;;;;;;5001188;28;20026;-69
2021/09/27 10:31:06;;;;;;;13.07;6.20;;;;;;;;;;4993446;28;20026;-69
2021/09/27 10:33:36;;;;;;;13.02;5.82;;;;;;;;;;4989171;28;20044;-69
2021/09/27 10:36:04;;;;;;;;;;;;;;;;;;4991500;28;20050;-69
2021/09/27 10:38:29;;;;;;;8.75;5.03;;;;;;;;;;4994674;28;19926;-69
2021/09/27 10:41:00;;;;;;;7.90;4.22;;;;;;;;;;4996964;28;20045;-69
2021/09/27 10:43:26;;;;;;;8.05;4.38;;;;;;;;;;4994523;28;20364;-69
2021/09/27 10:45:55;;;;;;;7.38;4.18;;;;;;;;;;4994116;28;20023;-69
2021/09/27 10:48:21;;;;;;;7.65;4.45;;;;;;;;;;4994317;28;20679;-69
2021/09/27 10:50:58;;;;;;;9.85;4.38;;;;;;;;;;4996538;28;20037;-69
2021/09/27 10:53:27;;;;;;;8.55;3.45;;;;;;;;;;5002511;28;20036;-71
2021/09/27 10:55:53;;;;;;;6.73;3.57;;;;;;;;;;4994446;28;20053;-69
2021/09/27 10:58:36;;;;;;;6.43;3.20;;;;;;;;;;4996830;28;20030;-70
2021/09/27 11:01:02;;;;;;;5.68;2.83;;;;;;;;;;4992338;28;20034;-70
2021/09/27 11:03:38;;;;;;;5.75;3.58;;;;;;;;;;4991566;28;20042;-70
2021/09/27 11:06:04;;;;;;;6.00;2.95;;;;;;;;;;4996313;28;20117;-70
2021/09/27 11:08:39;;;;;;;6.22;2.88;;;;;;;;;;4995288;28;20138;-70
2021/09/27 11:11:17;;;;;;;3.05;1.80;;;;;;;;;;5001301;28;20028;-70
2021/09/27 11:13:43;;;;;;;5.20;2.20;;;;;;;;;;4997623;28;20039;-70
2021/09/27 11:16:21;;;;;;;8.68;2.63;;;;;;;;;;4992117;28;20049;-70
2021/09/27 11:18:59;;;;;;;8.18;2.55;;;;;;;;;;4993072;28;20026;-70
2021/09/27 11:21:34;;;;;;;5.88;2.15;;;;;;;;;;5016609;28;20117;-69
2021/09/27 11:24:03;;;;;;;4.80;1.95;;;;;;;;;;4999952;28;20062;-70
2021/09/27 11:26:31;;;;;;;6.38;1.80;;;;;;;;;;4988397;28;20028;-69
2021/09/27 11:29:03;;;;;;;5.13;1.90;;;;;;;;;;4990254;28;20068;-69
2021/09/27 11:31:28;;;;;;;6.90;1.80;;;;;;;;;;4994509;28;20034;-69
2021/09/27 11:33:56;;;;;;;3.78;2.17;;;;;;;;;;4993145;28;20022;-69
2021/09/27 11:36:25;;;;;;;4.65;2.05;;;;;;;;;;4992485;28;20027;-71
2021/09/27 11:38:53;;;;;;;5.53;2.03;;;;;;;;;;4994545;28;20022;-68
2021/09/27 11:41:18;;;;;;;5.82;2.22;;;;;;;;;;5007928;28;20265;-70
2021/09/27 11:43:47;;;;;;;4.35;1.67;;;;;;;;;;4991884;28;20093;-68
2021/09/27 11:46:22;;;;;;;8.88;2.15;;;;;;;;;;4994676;28;20034;-69
2021/09/27 11:49:00;;;;;;;5.28;1.88;;;;;;;;;;4995356;28;20080;-69
2021/09/27 11:51:28;;;;;;;7.72;2.42;;;;;;;;;;4991273;28;20491;-68
2021/09/27 11:54:01;;;;;;;5.90;2.13;;;;;;;;;;4992802;28;20042;-69
2021/09/27 11:56:35;;;;;;;3.03;1.52;;;;;;;;;;4992035;28;20514;-69
2021/09/27 11:59:14;;;;;;;3.05;1.77;;;;;;;;;;4995809;28;20096;-69
2021/09/27 12:01:47;;;;;;;3.23;1.70;;;;;;;;;;4999334;28;20045;-70
2021/09/27 12:04:19;;;;;;;5.93;1.85;;;;;;;;;;5009621;28;20092;-69
2021/09/27 12:06:48;;;;;;;6.10;2.30;;;;;;;;;;4996997;28;20025;-69
2021/09/27 12:09:16;;;;;;;4.63;2.33;;;;;;;;;;4991859;28;20041;-69
2021/09/27 12:11:46;;;;;;;4.18;2.05;;;;;;;;;;4994910;28;20037;-70
2021/09/27 12:14:20;;;;;;;3.63;1.98;;;;;;;;;;4991080;28;20030;-69
2021/09/27 12:16:48;;;;;;;4.65;2.05;;;;;;;;;;4986383;28;20038;-70
2021/09/27 12:19:14;;;;;;;5.65;2.15;;;;;;;;;;4997419;28;20080;-69
2021/09/27 12:22:05;;;;;;;5.93;2.05;;;;;;;;;;4994976;28;20446;-69
2021/09/27 12:24:33;;;;;;;5.05;2.05;;;;;;;;;;4986120;28;20027;-70
2021/09/27 12:27:11;;;;;;;6.30;2.80;;;;;;;;;;4993230;28;20034;-70
2021/09/27 12:29:49;;;;;;;4.88;2.28;;;;;;;;;;4994229;28;20011;-70
2021/09/27 12:32:15;;;;;;;7.07;2.25;;;;;;;;;;4990985;28;20136;-70
2021/09/27 12:34:46;;;;;;;5.50;2.30;;;;;;;;;;4997456;28;20381;-70
2021/09/27 12:37:13;;;;;;;8.88;3.15;;;;;;;;;;4989158;28;20033;-70
2021/09/27 12:39:40;;;;;;;6.88;2.50;;;;;;;;;;4991194;28;20035;-70
2021/09/27 12:42:08;;;;;;;5.80;3.25;;;;;;;;;;4997243;28;20030;-70
2021/09/27 12:44:38;;;;;;;5.57;2.80;;;;;;;;;;5004601;28;20049;-70
2021/09/27 12:47:07;;;;;;;6.22;3.60;;;;;;;;;;5002269;28;20038;-70
2021/09/27 12:49:35;;;;;;;8.60;4.43;;;;;;;;;;4999511;28;20535;-70
2021/09/27 12:52:04;;;;;;;7.07;3.85;;;;;;;;;;5005081;28;20379;-70
2021/09/27 12:54:36;;;;;;;9.98;4.03;;;;;;;;;;5008117;28;20022;-70
2021/09/27 12:57:06;;;;;;;5.55;4.25;;;;;;;;;;5000978;28;20037;-70
2021/09/27 12:59:33;;;;;;;5.97;3.72;;;;;;;;;;4995510;28;20030;-70
2021/09/27 13:02:01;;;;;;;8.98;2.95;;;;;;;;;;4991229;28;20551;-70
2021/09/27 13:04:33;;;;;;;3.63;2.78;;;;;;;;;;4990847;28;20030;-70
2021/09/27 13:07:07;;;;;;;5.78;3.03;;;;;;;;;;4992518;28;20057;-70
2021/09/27 13:09:37;;;;;;;5.97;3.47;;;;;;;;;;4997130;28;20273;-70
2021/09/27 13:12:03;;;;;;;;;;;;;;;;;;4990432;28;20028;-70
2021/09/27 13:14:31;;;;;;;3.10;1.92;;;;;;;;;;4997181;28;19906;-70
2021/09/27 13:17:14;;;;;;;3.80;2.08;;;;;;;;;;4986234;28;20022;-69
2021/09/27 13:19:45;;;;;;;5.00;2.67;;;;;;;;;;4998452;28;20062;-70
2021/09/27 13:22:34;;;;;;;2.78;1.90;;;;;;;;;;4991374;28;20506;-69
2021/09/27 13:25:05;;;;;;;4.18;1.50;;;;;;;;;;4992063;28;20049;-70
2021/09/27 13:27:40;;;;;;;3.30;1.38;;;;;;;;;;4999614;28;20033;-69
2021/09/27 13:30:15;;;;;;;4.00;2.38;;;;;;;;;;4992884;28;20062;-69
2021/09/27 13:32:49;;;;;;;3.15;1.52;;;;;;;;;;4999597;28;20104;-70
2021/09/27 13:35:24;;;;;;;2.90;1.13;;;;;;;;;;4999637;28;20145;-72
2021/09/27 13:38:16;;;;;;;2.50;0.80;;;;;;;;;;4998497;28;20033;-71
2021/09/27 13:41:01;;;;;;;1.77;0.90;;;;;;;;;;4998321;28;20510;-72
2021/09/27 13:43:38;;;;;;;1.80;1.08;;;;;;;;;;4994717;28;20027;-72
2021/09/27 13:46:11;;;;;;;1.08;0.57;;;;;;;;;;4990585;28;20026;-71
2021/09/27 13:48:37;;;;;;;1.48;0.65;;;;;;;;;;4996616;28;20018;-71
2021/09/27 13:51:04;;;;;;;1.88;0.60;;;;;;;;;;5003059;28;20529;-72
2021/09/27 13:53:41;;;;;;;3.33;1.17;;;;;;;;;;5000653;28;20018;-71
2021/09/27 13:56:09;;;;;;;4.20;0.70;;;;;;;;;;4990409;28;20033;-71
2021/09/27 13:58:36;;;;;;;7.97;0.98;;;;;;;;;;5001874;28;20366;-71
2021/09/27 14:01:02;;;;;;;7.30;1.42;;;;;;;;;;4997486;28;20503;-72
2021/09/27 14:03:29;;;;;;;7.13;1.35;;;;;;;;;;5007718;28;20128;-71
2021/09/27 14:05:55;;;;;;;3.25;1.15;;;;;;;;;;5010818;28;20467;-72
2021/09/27 14:08:21;;;;;;;5.72;0.80;;;;;;;;;;5004336;28;20045;-71
2021/09/27 14:10:48;;;;;;;5.30;0.90;;;;;;;;;;5004920;28;20476;-71
2021/09/27 14:13:15;;;;;;;7.47;1.27;;;;;;;;;;5004102;28;20034;-72
2021/09/27 14:15:43;;;;;;;8.23;1.52;;;;;;;;;;5004986;28;20500;-71
2021/09/27 14:18:09;;;;;;;9.73;1.77;;;;;;;;;;4999576;28;20024;-71
2021/09/27 14:20:35;;;;;;;8.02;1.20;;;;;;;;;;5010026;28;20101;-71
2021/09/27 14:23:01;;;;;;;12.50;2.10;;;;;;;;;;5003986;28;20105;-71
2021/09/27 14:25:28;;;;;;;9.93;1.52;;;;;;;;;;5007559;28;20026;-71
2021/09/27 14:27:54;;;;;;;8.80;0.90;;;;;;;;;;5009387;28;20133;-71
2021/09/27 14:30:21;;;;;;;12.43;1.67;;;;;;;;;;5008120;28;20033;-71
2021/09/27 14:32:47;;;;;;;11.50;1.63;;;;;;;;;;5001753;28;20042;-68
2021/09/27 14:35:14;;;;;;;11.90;1.63;;;;;;;;;;4994229;28;20057;-70
2021/09/27 14:37:41;;;;;;;9.18;2.78;;;;;;;;;;5007263;28;20021;-70
2021/09/27 14:40:07;;;;;;;15.32;1.55;;;;;;;;;;4998844;28;20019;-70
2021/09/27 14:42:34;;;;;;;4.35;0.95;;;;;;;;;;5002053;28;20034;-70
2021/09/27 14:45:01;;;;;;;5.50;0.80;;;;;;;;;;4999712;28;20555;-70
2021/09/27 14:47:27;;;;;;;5.53;0.70;;;;;;;;;;5002673;28;20052;-69
2021/09/27 14:49:55;;;;;;;4.35;0.40;;;;;;;;;;5000168;28;20048;-69
2021/09/27 14:52:22;;;;;;;6.50;0.55;;;;;;;;;;4997894;28;20488;-69